Time;durP1;ratioP1;P1;durP2;ratioP2;P2;SDS_P1;SDS_P2;PMS_P1;PMS_P2;Temp;Humidity;BMP_temperature;BMP_pressure;BME280_temperature;BME280_humidity;BME280_pressure;Samples;Min_cycle;Max_cycle;Signal;HPM_P1;HPM_P2
2024/03/04 00:01:09;;;;;;;0.00;0.00;;;25.00;41.90;;;;;;5008193;28;20217;-46
2024/03/04 00:03:40;;;;;;;0.00;0.00;;;25.00;41.90;;;;;;5008769;28;20205;-46
2024/03/04 00:06:13;;;;;;;0.00;0.00;;;25.00;41.90;;;;;;5008321;28;20259;-42
2024/03/04 00:08:44;;;;;;;0.00;0.00;;;25.00;41.80;;;;;;5007722;28;20258;-43
2024/03/04 00:11:15;;;;;;;0.00;0.00;;;25.00;41.80;;;;;;5008090;28;20224;-49
2024/03/04 00:13:46;;;;;;;0.00;0.00;;;25.10;41.80;;;;;;5007989;28;20205;-46
2024/03/04 00:16:16;;;;;;;0.00;0.00;;;25.10;41.70;;;;;;5007769;28;20783;-47
2024/03/04 00:18:47;;;;;;;0.00;0.00;;;25.10;41.70;;;;;;5008647;28;20203;-50
2024/03/04 00:21:19;;;;;;;0.00;0.00;;;25.10;41.70;;;;;;5009105;28;20225;-48
2024/03/04 00:23:50;;;;;;;0.00;0.00;;;25.10;41.70;;;;;;5008466;28;20215;-48
2024/03/04 00:26:21;;;;;;;0.00;0.00;;;25.10;41.70;;;;;;5007922;28;20212;-50
2024/03/04 00:28:52;;;;;;;0.00;0.00;;;25.10;41.70;;;;;;5007960;28;20662;-46
2024/03/04 00:31:22;;;;;;;0.00;0.00;;;25.10;41.60;;;;;;5007259;28;20231;-40
2024/03/04 00:33:53;;;;;;;0.00;0.00;;;25.20;41.60;;;;;;5008595;28;20197;-45
2024/03/04 00:36:28;;;;;;;0.00;0.00;;;25.20;41.70;;;;;;5008226;28;20232;-41
2024/03/04 00:38:58;;;;;;;0.00;0.00;;;25.20;41.70;;;;;;4998730;28;20204;-45
2024/03/04 00:41:30;;;;;;;0.00;0.00;;;25.20;41.70;;;;;;5007054;28;20251;-45
2024/03/04 00:44:05;;;;;;;0.00;0.00;;;25.20;41.70;;;;;;5007678;28;20574;-50
2024/03/04 00:46:41;;;;;;;0.00;0.00;;;25.30;41.70;;;;;;5007492;28;20204;-49
2024/03/04 00:49:12;;;;;;;0.00;0.00;;;25.30;41.60;;;;;;5007574;28;20310;-47
2024/03/04 00:51:45;;;;;;;0.00;0.00;;;25.30;41.60;;;;;;5007501;28;20634;-46
2024/03/04 00:54:16;;;;;;;0.00;0.00;;;25.30;41.60;;;;;;5007583;28;20201;-50
2024/03/04 00:56:47;;;;;;;0.00;0.00;;;25.30;41.50;;;;;;5007449;28;20232;-47
2024/03/04 00:59:18;;;;;;;0.00;0.00;;;25.30;41.30;;;;;;5009811;28;20211;-50
2024/03/04 01:01:49;;;;;;;0.00;0.00;;;25.40;41.10;;;;;;5011564;28;20224;-49
2024/03/04 01:04:20;;;;;;;0.00;0.00;;;25.30;41.00;;;;;;5011831;28;20235;-46
2024/03/04 01:06:53;;;;;;;0.00;0.00;;;25.40;41.10;;;;;;5012241;28;20201;-52
2024/03/04 01:09:23;;;;;;;0.00;0.00;;;25.40;41.00;;;;;;5011350;28;20653;-47
2024/03/04 01:11:55;;;;;;;0.00;0.00;;;25.40;41.00;;;;;;5012012;28;20315;-51
2024/03/04 01:14:25;;;;;;;0.00;0.00;;;25.40;40.90;;;;;;5011259;28;20192;-52
2024/03/04 01:16:56;;;;;;;0.00;0.00;;;25.40;40.80;;;;;;5011939;28;20235;-45
2024/03/04 01:19:28;;;;;;;0.00;0.00;;;25.50;40.90;;;;;;5011078;28;20292;-48
2024/03/04 01:22:00;;;;;;;0.00;0.00;;;25.40;40.80;;;;;;5010920;28;20677;-49
2024/03/04 01:24:31;;;;;;;0.00;0.00;;;25.50;40.90;;;;;;5011374;28;20498;-45
2024/03/04 01:27:01;;;;;;;0.00;0.00;;;25.50;40.80;;;;;;5011252;28;20212;-43
2024/03/04 01:29:32;;;;;;;0.00;0.00;;;25.50;40.70;;;;;;5010842;28;20661;-43
2024/03/04 01:32:03;;;;;;;0.00;0.00;;;25.60;40.70;;;;;;5010406;28;20205;-48
2024/03/04 01:34:35;;;;;;;0.00;0.00;;;25.60;40.80;;;;;;5011465;28;20287;-48
2024/03/04 01:37:07;;;;;;;0.00;0.00;;;25.60;40.70;;;;;;5010153;28;20634;-48
2024/03/04 01:39:38;;;;;;;0.00;0.00;;;25.60;40.70;;;;;;5010690;28;20299;-46
2024/03/04 01:42:09;;;;;;;0.00;0.00;;;25.60;40.70;;;;;;5010519;28;20204;-48
2024/03/04 01:44:40;;;;;;;0.00;0.00;;;25.60;40.60;;;;;;5011476;28;20203;-46
2024/03/04 01:47:17;;;;;;;0.05;0.05;;;25.60;40.50;;;;;;5010899;28;20606;-47
2024/03/04 01:49:49;;;;;;;0.00;0.00;;;25.60;40.20;;;;;;5010877;28;20300;-45
2024/03/04 01:52:22;;;;;;;0.00;0.00;;;25.70;40.20;;;;;;5011417;28;20200;-48
2024/03/04 01:54:57;;;;;;;0.00;0.00;;;25.70;40.00;;;;;;5010522;28;20205;-44
2024/03/04 01:57:28;;;;;;;0.00;0.00;;;25.70;40.00;;;;;;5011269;28;20228;-45
2024/03/04 01:59:58;;;;;;;0.00;0.00;;;25.70;40.00;;;;;;5009847;28;20681;-50
2024/03/04 02:02:29;;;;;;;0.00;0.00;;;25.70;40.00;;;;;;5011195;28;20551;-48
2024/03/04 02:05:02;;;;;;;0.00;0.00;;;25.70;39.90;;;;;;5010606;28;20208;-45
2024/03/04 02:07:35;;;;;;;0.00;0.00;;;25.80;39.90;;;;;;5009395;28;20232;-46
2024/03/04 02:10:06;;;;;;;0.00;0.00;;;25.80;39.90;;;;;;5008304;28;20213;-48
2024/03/04 02:12:37;;;;;;;0.00;0.00;;;25.80;39.80;;;;;;5009644;28;20189;-48
2024/03/04 02:15:08;;;;;;;0.00;0.00;;;25.80;39.70;;;;;;5007086;28;20505;-45
2024/03/04 02:17:39;;;;;;;0.00;0.00;;;25.80;39.80;;;;;;5009654;28;20224;-48
2024/03/04 02:20:12;;;;;;;0.00;0.00;;;25.90;39.70;;;;;;5010319;28;20270;-44
2024/03/04 02:22:45;;;;;;;0.00;0.00;;;25.90;39.60;;;;;;5007165;28;20200;-47
2024/03/04 02:25:16;;;;;;;0.00;0.00;;;25.90;39.60;;;;;;5009918;28;20197;-48
2024/03/04 02:27:46;;;;;;;0.00;0.00;;;25.90;39.50;;;;;;5009160;28;20193;-47
2024/03/04 02:30:17;;;;;;;0.00;0.00;;;25.90;39.50;;;;;;5009770;28;20220;-48
2024/03/04 02:32:48;;;;;;;0.00;0.00;;;25.90;39.50;;;;;;5009848;28;20197;-44
2024/03/04 02:35:19;;;;;;;0.00;0.00;;;26.00;39.60;;;;;;5010390;28;20594;-45
2024/03/04 02:37:51;;;;;;;0.00;0.00;;;26.00;39.60;;;;;;5008999;28;20570;-45
2024/03/04 02:40:22;;;;;;;0.00;0.00;;;26.00;39.60;;;;;;4990606;28;20224;-49
2024/03/04 02:42:53;;;;;;;0.00;0.00;;;26.00;39.50;;;;;;4990680;28;20210;-47
2024/03/04 02:45:23;;;;;;;0.00;0.00;;;26.10;39.40;;;;;;5006199;28;20208;-48
2024/03/04 02:47:54;;;;;;;0.00;0.00;;;26.10;39.50;;;;;;5010320;28;20228;-50
2024/03/04 02:50:26;;;;;;;0.00;0.00;;;26.10;39.50;;;;;;5009692;28;20216;-42
2024/03/04 02:52:58;;;;;;;0.00;0.00;;;26.10;39.50;;;;;;5009236;28;20236;-46
2024/03/04 02:55:29;;;;;;;0.00;0.00;;;26.10;39.50;;;;;;5009423;28;20213;-50
2024/03/04 02:57:59;;;;;;;0.00;0.00;;;26.10;39.40;;;;;;5009174;28;20228;-49
2024/03/04 03:00:30;;;;;;;0.00;0.00;;;26.20;39.50;;;;;;5009263;28;20239;-51
2024/03/04 03:03:02;;;;;;;0.00;0.00;;;26.20;39.50;;;;;;5009413;28;20208;-52
2024/03/04 03:05:32;;;;;;;0.00;0.00;;;26.20;39.40;;;;;;5010463;28;20201;-50
2024/03/04 03:08:05;;;;;;;0.00;0.00;;;26.20;39.40;;;;;;5008812;28;20686;-48
2024/03/04 03:10:36;;;;;;;0.00;0.00;;;26.20;39.40;;;;;;5011445;28;20208;-46
2024/03/04 03:13:08;;;;;;;0.00;0.00;;;26.30;39.50;;;;;;5012069;28;20204;-45
2024/03/04 03:15:38;;;;;;;0.00;0.00;;;26.30;39.50;;;;;;5009573;28;20243;-45
2024/03/04 03:18:13;;;;;;;0.00;0.00;;;26.30;39.60;;;;;;5012301;28;20224;-47
2024/03/04 03:20:44;;;;;;;0.00;0.00;;;26.30;39.50;;;;;;5009881;28;20208;-44
2024/03/04 03:23:16;;;;;;;0.00;0.00;;;26.30;39.50;;;;;;5012385;28;20192;-54
2024/03/04 03:25:47;;;;;;;0.00;0.00;;;26.30;39.50;;;;;;5012410;28;20227;-50
2024/03/04 03:28:18;;;;;;;0.00;0.00;;;26.30;39.60;;;;;;5012028;28;20201;-48
2024/03/04 03:30:49;;;;;;;0.00;0.00;;;26.40;39.60;;;;;;5011839;28;20248;-46
2024/03/04 03:33:19;;;;;;;0.00;0.00;;;26.40;40.20;;;;;;5009471;28;20185;-49
2024/03/04 03:35:50;;;;;;;0.00;0.00;;;26.40;39.60;;;;;;5012152;28;20559;-45
2024/03/04 03:38:22;;;;;;;0.00;0.00;;;26.50;39.50;;;;;;5009697;28;20557;-45
2024/03/04 03:40:53;;;;;;;0.05;0.05;;;26.40;39.20;;;;;;5011314;28;21183;-47
2024/03/04 03:43:24;;;;;;;0.00;0.00;;;26.50;39.10;;;;;;5009168;28;20192;-48
2024/03/04 03:45:55;;;;;;;0.00;0.00;;;26.50;38.90;;;;;;5012773;28;20193;-50
2024/03/04 03:48:27;;;;;;;0.00;0.00;;;26.50;38.80;;;;;;5011976;28;20199;-43
2024/03/04 03:50:57;;;;;;;0.00;0.00;;;26.50;38.80;;;;;;5011738;28;20271;-45
2024/03/04 03:53:30;;;;;;;0.00;0.00;;;26.50;38.70;;;;;;5011686;28;20675;-45
2024/03/04 03:56:00;;;;;;;0.00;0.00;;;26.60;38.70;;;;;;5009746;28;20201;-46
2024/03/04 03:58:31;;;;;;;0.00;0.00;;;26.60;38.60;;;;;;5011267;28;20219;-46
2024/03/04 04:01:02;;;;;;;0.00;0.00;;;26.60;38.40;;;;;;5008952;28;20578;-47
2024/03/04 04:03:33;;;;;;;0.00;0.00;;;26.60;38.50;;;;;;5011317;28;20189;-51
2024/03/04 04:06:04;;;;;;;0.00;0.00;;;26.70;38.40;;;;;;5009269;28;20283;-47
2024/03/04 04:08:37;;;;;;;0.00;0.00;;;26.70;38.50;;;;;;5010503;28;20196;-52
2024/03/04 04:11:07;;;;;;;0.00;0.00;;;26.70;38.60;;;;;;5011217;28;20215;-47
2024/03/04 04:13:38;;;;;;;0.00;0.00;;;26.70;38.60;;;;;;5008592;28;20206;-50
2024/03/04 04:16:09;;;;;;;0.00;0.00;;;26.70;38.70;;;;;;5011428;28;20215;-52
2024/03/04 04:18:39;;;;;;;0.00;0.00;;;26.70;38.60;;;;;;5008819;28;20227;-49
2024/03/04 04:21:12;;;;;;;0.00;0.00;;;26.70;38.70;;;;;;5011269;28;20228;-52
2024/03/04 04:23:44;;;;;;;0.00;0.00;;;26.70;38.70;;;;;;5009451;28;20235;-48
2024/03/04 04:26:15;;;;;;;0.00;0.00;;;26.70;38.50;;;;;;5011370;28;20189;-51
2024/03/04 04:28:46;;;;;;;0.00;0.00;;;26.70;38.40;;;;;;5010612;28;20653;-47
2024/03/04 04:31:22;;;;;;;0.00;0.00;;;26.70;38.30;;;;;;5010629;28;20658;-49
2024/03/04 04:33:53;;;;;;;0.00;0.00;;;26.70;38.40;;;;;;5010282;28;20716;-52
2024/03/04 04:36:24;;;;;;;0.00;0.00;;;26.70;38.40;;;;;;5008325;28;20196;-49
2024/03/04 04:38:56;;;;;;;0.00;0.00;;;26.60;38.40;;;;;;5009484;28;20224;-49
2024/03/04 04:41:27;;;;;;;0.00;0.00;;;26.60;38.20;;;;;;5010907;28;20209;-48
2024/03/04 04:43:57;;;;;;;0.00;0.00;;;26.60;38.30;;;;;;5010236;28;20657;-49
2024/03/04 04:46:28;;;;;;;0.00;0.00;;;26.60;38.30;;;;;;5011470;28;20193;-50
2024/03/04 04:48:59;;;;;;;0.00;0.00;;;26.60;38.40;;;;;;5010290;28;20197;-51
2024/03/04 04:51:30;;;;;;;0.00;0.00;;;26.60;38.30;;;;;;5010823;28;20240;-51
2024/03/04 04:54:02;;;;;;;0.00;0.00;;;26.50;38.20;;;;;;5008499;28;20185;-50
2024/03/04 04:56:33;;;;;;;0.00;0.00;;;26.50;38.10;;;;;;5010974;28;20197;-48
2024/03/04 04:59:03;;;;;;;0.00;0.00;;;26.50;37.80;;;;;;5008719;28;20212;-50
2024/03/04 05:01:34;;;;;;;0.00;0.00;;;26.50;37.50;;;;;;5010732;28;20227;-48
2024/03/04 05:04:06;;;;;;;0.00;0.00;;;26.50;37.20;;;;;;5010957;28;20216;-50
2024/03/04 05:06:37;;;;;;;0.00;0.00;;;26.50;37.10;;;;;;5011095;28;20196;-48
2024/03/04 05:09:10;;;;;;;0.00;0.00;;;26.50;36.80;;;;;;5011256;28;20201;-50
2024/03/04 05:11:40;;;;;;;0.00;0.00;;;26.50;36.60;;;;;;5010875;28;20712;-50
2024/03/04 05:14:12;;;;;;;0.00;0.00;;;26.50;36.60;;;;;;5010967;28;20684;-50
2024/03/04 05:16:44;;;;;;;0.00;0.00;;;26.40;36.40;;;;;;5011203;28;20223;-50
2024/03/04 05:19:15;;;;;;;0.00;0.00;;;26.40;36.30;;;;;;5010659;28;20471;-46
2024/03/04 05:21:46;;;;;;;0.00;0.00;;;26.40;36.40;;;;;;5010543;28;20585;-46
2024/03/04 05:24:18;;;;;;;0.00;0.00;;;26.40;36.30;;;;;;5010811;28;20826;-50
2024/03/04 05:26:49;;;;;;;0.00;0.00;;;26.30;36.10;;;;;;5011333;28;20205;-51
2024/03/04 05:29:20;;;;;;;0.00;0.00;;;26.30;36.00;;;;;;5011041;28;20228;-53
2024/03/04 05:31:56;;;;;;;0.00;0.00;;;26.30;35.90;;;;;;5011014;28;20217;-50
2024/03/04 05:34:27;;;;;;;0.00;0.00;;;26.30;36.10;;;;;;5010764;28;20610;-48
2024/03/04 05:36:58;;;;;;;0.00;0.00;;;26.20;36.30;;;;;;5010848;28;20720;-50
2024/03/04 05:39:31;;;;;;;0.00;0.00;;;26.20;36.50;;;;;;5010997;28;20658;-50
2024/03/04 05:42:01;;;;;;;0.00;0.00;;;26.20;36.50;;;;;;5010702;28;20203;-47
2024/03/04 05:44:32;;;;;;;0.00;0.00;;;26.20;36.60;;;;;;5012323;28;20676;-47
2024/03/04 05:47:03;;;;;;;0.00;0.00;;;26.20;36.50;;;;;;5014773;28;20204;-53
2024/03/04 05:49:35;;;;;;;0.00;0.00;;;26.20;36.30;;;;;;5014754;28;20454;-50
2024/03/04 05:52:06;;;;;;;0.00;0.00;;;26.20;36.20;;;;;;5013527;28;20235;-50
2024/03/04 05:54:38;;;;;;;0.00;0.00;;;26.20;36.40;;;;;;5013992;28;20240;-49
2024/03/04 05:57:09;;;;;;;0.00;0.00;;;26.20;36.40;;;;;;5014049;28;20201;-48
2024/03/04 05:59:42;;;;;;;0.00;0.00;;;26.20;36.40;;;;;;5013984;28;20203;-50
2024/03/04 06:02:12;;;;;;;0.00;0.00;;;26.20;36.40;;;;;;5014526;28;20201;-49
2024/03/04 06:04:43;;;;;;;0.00;0.00;;;26.20;36.40;;;;;;5014377;28;20229;-48
2024/03/04 06:07:15;;;;;;;0.00;0.00;;;26.20;36.30;;;;;;5014072;28;20193;-49
2024/03/04 06:09:48;;;;;;;0.00;0.00;;;26.20;36.40;;;;;;5012167;28;20189;-52
2024/03/04 06:12:19;;;;;;;0.00;0.00;;;26.20;36.40;;;;;;5014031;28;20200;-49
2024/03/04 06:14:50;;;;;;;0.03;0.03;;;26.20;36.20;;;;;;5013559;28;20193;-48
2024/03/04 06:17:20;;;;;;;0.00;0.00;;;26.20;36.20;;;;;;5013610;28;20320;-52
2024/03/04 06:19:51;;;;;;;0.00;0.00;;;26.20;36.10;;;;;;5013529;28;20211;-45
2024/03/04 06:22:22;;;;;;;0.00;0.00;;;26.20;36.10;;;;;;5013181;28;20657;-43
2024/03/04 06:24:54;;;;;;;0.00;0.00;;;26.20;36.10;;;;;;5013046;28;20684;-48
2024/03/04 06:27:25;;;;;;;0.00;0.00;;;26.20;36.20;;;;;;5013249;28;20222;-49
2024/03/04 06:29:55;;;;;;;0.00;0.00;;;26.20;36.20;;;;;;5012627;28;20672;-47
2024/03/04 06:32:26;;;;;;;0.00;0.00;;;26.20;36.20;;;;;;5013920;28;20204;-48
2024/03/04 06:34:58;;;;;;;0.00;0.00;;;26.20;36.20;;;;;;5013400;28;20203;-48
2024/03/04 06:37:28;;;;;;;0.00;0.00;;;26.20;36.10;;;;;;5013082;28;20201;-51
2024/03/04 06:40:01;;;;;;;0.00;0.00;;;26.20;35.90;;;;;;5013589;28;20212;-51
2024/03/04 06:42:31;;;;;;;0.00;0.00;;;26.20;35.60;;;;;;5013336;28;20203;-51
2024/03/04 06:45:02;;;;;;;0.00;0.00;;;26.20;35.40;;;;;;5011171;28;20267;-46
2024/03/04 06:47:33;;;;;;;0.00;0.00;;;26.10;35.40;;;;;;5013136;28;20197;-50
2024/03/04 06:50:04;;;;;;;0.00;0.00;;;26.10;35.40;;;;;;5012491;28;20224;-50
2024/03/04 06:52:35;;;;;;;0.00;0.00;;;26.10;35.40;;;;;;5011978;28;20199;-47
2024/03/04 06:55:08;;;;;;;0.00;0.00;;;26.10;35.40;;;;;;5012375;28;20193;-51
2024/03/04 06:57:39;;;;;;;0.00;0.00;;;26.10;35.40;;;;;;5010391;28;20189;-54
2024/03/04 07:00:13;;;;;;;0.00;0.00;;;26.00;35.40;;;;;;5012162;28;20213;-46
2024/03/04 07:02:44;;;;;;;0.00;0.00;;;26.00;35.40;;;;;;5010766;28;20184;-51
2024/03/04 07:05:15;;;;;;;0.00;0.00;;;26.00;35.50;;;;;;5012477;28;20189;-51
2024/03/04 07:07:45;;;;;;;0.00;0.00;;;26.00;35.50;;;;;;5011347;28;20542;-47
2024/03/04 07:10:18;;;;;;;0.00;0.00;;;26.00;35.50;;;;;;5012390;28;20213;-48
2024/03/04 07:12:49;;;;;;;0.00;0.00;;;25.90;36.00;;;;;;5011971;28;20192;-44
2024/03/04 07:15:19;;;;;;;0.00;0.00;;;25.90;35.30;;;;;;5009931;28;20193;-51
2024/03/04 07:17:50;;;;;;;0.00;0.00;;;25.90;35.30;;;;;;5011470;28;20280;-49
2024/03/04 07:20:21;;;;;;;0.00;0.00;;;25.90;35.20;;;;;;5010195;28;20213;-44
2024/03/04 07:22:51;;;;;;;0.08;0.08;;;25.80;35.20;;;;;;5011357;28;20565;-51
2024/03/04 07:25:24;;;;;;;0.00;0.00;;;25.80;35.30;;;;;;5009891;28;20703;-50
2024/03/04 07:27:54;;;;;;;0.00;0.00;;;25.80;35.30;;;;;;5011814;28;20189;-51
2024/03/04 07:30:25;;;;;;;0.00;0.00;;;25.80;35.30;;;;;;5011977;28;20215;-53
2024/03/04 07:32:56;;;;;;;0.00;0.00;;;25.70;35.30;;;;;;5012056;28;20193;-46
2024/03/04 07:35:26;;;;;;;0.00;0.00;;;25.70;35.30;;;;;;5012157;28;20193;-53
2024/03/04 07:37:57;;;;;;;0.10;0.10;;;25.70;35.40;;;;;;5008627;28;20221;-58
2024/03/04 07:40:30;;;;;;;0.00;0.00;;;25.60;32.90;;;;;;5011424;28;20209;-53
2024/03/04 07:43:00;;;;;;;0.00;0.00;;;25.50;31.20;;;;;;5009653;28;20189;-47
2024/03/04 07:45:31;;;;;;;0.00;0.00;;;25.40;30.60;;;;;;5011492;28;20656;-49
2024/03/04 07:48:02;;;;;;;0.00;0.00;;;25.20;30.80;;;;;;5009467;28;20197;-50
2024/03/04 07:50:32;;;;;;;0.00;0.00;;;25.00;31.10;;;;;;5018334;28;20212;-44
2024/03/04 07:53:03;;;;;;;0.00;0.00;;;24.90;31.50;;;;;;5020954;28;20189;-47
2024/03/04 07:55:36;;;;;;;0.00;0.00;;;24.80;31.70;;;;;;5021946;28;20544;-49
2024/03/04 07:58:06;;;;;;;0.00;0.00;;;24.70;31.90;;;;;;5020934;28;20216;-49
2024/03/04 08:00:37;;;;;;;0.00;0.00;;;24.70;32.20;;;;;;5017137;28;20296;-47
2024/03/04 08:03:08;;;;;;;0.10;0.10;;;24.70;32.30;;;;;;5020667;28;20197;-50
2024/03/04 08:05:39;;;;;;;0.00;0.00;;;24.70;32.50;;;;;;5018035;28;20193;-48
2024/03/04 08:08:10;;;;;;;0.00;0.00;;;24.60;32.60;;;;;;5019309;28;20207;-45
2024/03/04 08:10:43;;;;;;;0.00;0.00;;;24.60;32.70;;;;;;5018271;28;20205;-51
2024/03/04 08:13:13;;;;;;;0.00;0.00;;;24.60;32.90;;;;;;5019477;28;20189;-50
2024/03/04 08:15:44;;;;;;;0.00;0.00;;;24.60;33.00;;;;;;5021007;28;20199;-52
2024/03/04 08:18:14;;;;;;;0.00;0.00;;;24.60;33.20;;;;;;5021796;28;20212;-50
2024/03/04 08:20:45;;;;;;;0.00;0.00;;;24.60;33.20;;;;;;5019266;28;20225;-51
2024/03/04 08:23:16;;;;;;;0.00;0.00;;;24.60;33.40;;;;;;5019594;28;20223;-51
2024/03/04 08:25:48;;;;;;;0.03;0.03;;;24.60;33.40;;;;;;5020809;28;20211;-53
2024/03/04 08:28:19;;;;;;;0.00;0.00;;;24.60;33.60;;;;;;5019839;28;20207;-52
2024/03/04 08:30:50;;;;;;;0.00;0.00;;;24.60;33.70;;;;;;5021374;28;20208;-46
2024/03/04 08:33:20;;;;;;;0.00;0.00;;;24.60;33.70;;;;;;5018250;28;20196;-51
2024/03/04 08:35:51;;;;;;;0.00;0.00;;;24.60;33.80;;;;;;5019497;28;20648;-48
2024/03/04 08:38:22;;;;;;;0.00;0.00;;;24.50;33.80;;;;;;5018028;28;20712;-52
2024/03/04 08:40:54;;;;;;;0.00;0.00;;;24.50;34.00;;;;;;5019464;28;20224;-54
2024/03/04 08:43:25;;;;;;;0.00;0.00;;;24.50;34.00;;;;;;5007565;28;20653;-48
2024/03/04 08:45:55;;;;;;;0.00;0.00;;;24.50;34.00;;;;;;5007068;28;20616;-47
2024/03/04 08:48:26;;;;;;;0.00;0.00;;;24.50;34.00;;;;;;5007497;28;20661;-46
2024/03/04 08:50:57;;;;;;;0.00;0.00;;;24.50;34.00;;;;;;5007091;28;20576;-51
2024/03/04 08:53:29;;;;;;;0.10;0.10;;;24.50;34.20;;;;;;5006548;28;20201;-54
2024/03/04 08:56:01;;;;;;;0.00;0.00;;;24.50;34.20;;;;;;5009363;28;20207;-51
2024/03/04 08:58:32;;;;;;;0.00;0.00;;;24.40;34.30;;;;;;5027343;28;20235;-52
2024/03/04 09:01:03;;;;;;;0.00;0.00;;;24.40;34.30;;;;;;5025464;28;20231;-49
2024/03/04 09:03:34;;;;;;;0.00;0.00;;;24.40;34.40;;;;;;5007620;28;20287;-50
2024/03/04 09:06:04;;;;;;;0.00;0.00;;;24.40;34.50;;;;;;5007135;28;20200;-52
2024/03/04 09:08:36;;;;;;;0.00;0.00;;;24.40;34.60;;;;;;5007528;28;20208;-51
2024/03/04 09:11:09;;;;;;;0.00;0.00;;;24.30;34.60;;;;;;5006799;28;20227;-55
2024/03/04 09:13:40;;;;;;;0.03;0.03;;;24.30;34.70;;;;;;5007461;28;20200;-49
2024/03/04 09:16:11;;;;;;;0.00;0.00;;;24.30;34.80;;;;;;5007399;28;20201;-54
2024/03/04 09:18:43;;;;;;;0.00;0.00;;;24.30;34.80;;;;;;5007343;28;20228;-50
2024/03/04 09:21:14;;;;;;;0.00;0.00;;;24.30;34.80;;;;;;5011070;28;20681;-53
2024/03/04 09:23:45;;;;;;;0.00;0.00;;;24.30;34.80;;;;;;5010856;28;20583;-54
2024/03/04 09:26:17;;;;;;;0.00;0.00;;;24.20;34.80;;;;;;5010978;28;20864;-52
2024/03/04 09:28:52;;;;;;;0.00;0.00;;;24.20;34.80;;;;;;5010729;28;20215;-51
2024/03/04 09:31:23;;;;;;;0.00;0.00;;;24.20;34.80;;;;;;5010508;28;20220;-50
2024/03/04 09:33:54;;;;;;;0.00;0.00;;;24.20;34.90;;;;;;5011237;28;20196;-53
2024/03/04 09:36:24;;;;;;;0.00;0.00;;;24.20;34.90;;;;;;5011099;28;20207;-55
2024/03/04 09:38:55;;;;;;;0.00;0.00;;;24.20;34.90;;;;;;5007919;28;20444;-56
2024/03/04 09:41:27;;;;;;;0.00;0.00;;;24.10;34.80;;;;;;5010195;28;20398;-53
2024/03/04 09:43:58;;;;;;;0.00;0.00;;;24.10;34.80;;;;;;5007627;28;20197;-52
2024/03/04 09:46:30;;;;;;;0.00;0.00;;;24.10;34.90;;;;;;5010730;28;20608;-52
2024/03/04 09:49:01;;;;;;;0.05;0.05;;;24.00;34.90;;;;;;5007955;28;20189;-48
2024/03/04 09:51:34;;;;;;;0.00;0.00;;;24.00;34.90;;;;;;5010403;28;20279;-54
2024/03/04 09:54:06;;;;;;;0.00;0.00;;;24.00;34.90;;;;;;5009700;28;20283;-49
2024/03/04 09:56:39;;;;;;;0.00;0.00;;;24.00;34.90;;;;;;5010799;28;20185;-54
2024/03/04 09:59:09;;;;;;;0.00;0.00;;;24.00;35.00;;;;;;5013192;28;21215;-48
2024/03/04 10:01:41;;;;;;;0.10;0.10;;;23.90;35.00;;;;;;5011609;28;20704;-52
2024/03/04 10:04:11;;;;;;;0.00;0.00;;;23.90;35.00;;;;;;5013619;28;20189;-44
2024/03/04 10:06:42;;;;;;;0.10;0.10;;;23.90;35.00;;;;;;5013452;28;20561;-53
2024/03/04 10:09:13;;;;;;;0.10;0.10;;;23.90;35.10;;;;;;5013508;28;20185;-52
2024/03/04 10:11:46;;;;;;;0.00;0.00;;;23.80;35.10;;;;;;5013627;28;20220;-55
2024/03/04 10:14:17;;;;;;;0.00;0.00;;;23.80;35.10;;;;;;5011347;28;20189;-51
2024/03/04 10:16:47;;;;;;;0.00;0.00;;;23.80;35.10;;;;;;5013775;28;20189;-54
2024/03/04 10:19:22;;;;;;;0.05;0.05;;;23.80;35.20;;;;;;5010750;28;20755;-48
2024/03/04 10:21:54;;;;;;;0.00;0.00;;;23.80;35.20;;;;;;5012794;28;20219;-54
2024/03/04 10:24:25;;;;;;;0.00;0.00;;;23.70;35.20;;;;;;5013362;28;20189;-52
2024/03/04 10:26:57;;;;;;;0.10;0.10;;;23.70;35.20;;;;;;5010330;28;20197;-49
2024/03/04 10:29:28;;;;;;;0.00;0.00;;;23.70;35.20;;;;;;5010505;28;20204;-51
2024/03/04 10:31:59;;;;;;;0.00;0.00;;;23.70;35.20;;;;;;5011656;28;20689;-52
2024/03/04 10:34:29;;;;;;;0.00;0.00;;;23.70;35.30;;;;;;5013336;28;20235;-53
2024/03/04 10:37:01;;;;;;;0.10;0.10;;;23.70;35.30;;;;;;5010584;28;20197;-51
2024/03/04 10:39:32;;;;;;;0.00;0.00;;;23.60;35.30;;;;;;5012968;28;20256;-52
2024/03/04 10:42:05;;;;;;;0.00;0.00;;;23.60;35.40;;;;;;5013040;28;20197;-47
2024/03/04 10:44:36;;;;;;;0.00;0.00;;;23.60;35.40;;;;;;5010044;28;20181;-52
2024/03/04 10:47:07;;;;;;;0.00;0.00;;;23.60;35.40;;;;;;5012683;28;20547;-51
2024/03/04 10:49:40;;;;;;;0.00;0.00;;;23.50;35.40;;;;;;5010671;28;20185;-54
2024/03/04 10:52:11;;;;;;;0.00;0.00;;;23.50;35.50;;;;;;5012242;28;20718;-44
2024/03/04 10:54:41;;;;;;;0.00;0.00;;;23.50;35.50;;;;;;5012569;28;20192;-52
2024/03/04 10:57:28;;;;;;;0.00;0.00;;;23.50;35.60;;;;;;5012968;28;20240;-50
2024/03/04 10:59:59;;;;;;;0.00;0.00;;;23.50;35.60;;;;;;5010433;28;20306;-51
2024/03/04 11:02:41;;;;;;;0.00;0.00;;;23.50;35.60;;;;;;5012826;28;20193;-47
2024/03/04 11:05:12;;;;;;;0.00;0.00;;;23.50;35.70;;;;;;5011859;28;20189;-53
2024/03/04 11:07:45;;;;;;;0.00;0.00;;;23.40;35.70;;;;;;5011537;28;20193;-55
2024/03/04 11:10:22;;;;;;;0.00;0.00;;;23.40;35.70;;;;;;5009165;28;20209;-55
2024/03/04 11:13:07;;;;;;;0.00;0.00;;;23.40;35.70;;;;;;5012157;28;20199;-55
2024/03/04 11:15:44;;;;;;;0.03;0.03;;;23.40;35.70;;;;;;5009716;28;20193;-52
2024/03/04 11:18:27;;;;;;;0.03;0.03;;;23.30;35.70;;;;;;5012352;28;20204;-54
2024/03/04 11:20:58;;;;;;;0.00;0.00;;;23.30;35.80;;;;;;5012392;28;20748;-56
2024/03/04 11:23:28;;;;;;;0.00;0.00;;;23.30;35.80;;;;;;5012398;28;20200;-55
2024/03/04 11:26:00;;;;;;;0.00;0.00;;;23.30;35.80;;;;;;5012181;28;20574;-55
2024/03/04 11:28:33;;;;;;;0.00;0.00;;;23.30;35.90;;;;;;5012655;28;20200;-55
2024/03/04 11:31:04;;;;;;;0.00;0.00;;;23.30;35.90;;;;;;5012345;28;20228;-51
2024/03/04 11:33:45;;;;;;;0.00;0.00;;;23.20;35.90;;;;;;5012914;28;20192;-48
2024/03/04 11:36:18;;;;;;;0.00;0.00;;;23.20;36.00;;;;;;5011959;28;20193;-54
2024/03/04 11:38:49;;;;;;;0.00;0.00;;;23.30;36.10;;;;;;5012522;28;20628;-53
2024/03/04 11:41:40;;;;;;;0.00;0.00;;;23.20;36.10;;;;;;5012704;28;20227;-48
2024/03/04 11:44:13;;;;;;;0.00;0.00;;;23.20;36.10;;;;;;5012810;28;20287;-51
2024/03/04 11:46:44;;;;;;;0.00;0.00;;;23.20;36.10;;;;;;5012467;28;20196;-47
2024/03/04 11:49:28;;;;;;;0.00;0.00;;;23.20;36.10;;;;;;5012321;28;20193;-49
2024/03/04 11:52:06;;;;;;;0.00;0.00;;;23.10;36.10;;;;;;5012153;28;20212;-46
2024/03/04 11:54:45;;;;;;;0.00;0.00;;;23.20;36.30;;;;;;5012204;28;20609;-47
2024/03/04 11:57:17;;;;;;;0.00;0.00;;;23.10;36.20;;;;;;5012033;28;20192;-49
2024/03/04 12:00:03;;;;;;;0.00;0.00;;;23.10;36.30;;;;;;5011475;28;20216;-49
2024/03/04 12:02:33;;;;;;;0.00;0.00;;;23.10;36.30;;;;;;5012288;28;20227;-46
2024/03/04 12:05:04;;;;;;;0.00;0.00;;;23.10;36.30;;;;;;5012323;28;20205;-50
2024/03/04 12:07:35;;;;;;;0.08;0.08;;;23.10;36.30;;;;;;5012185;28;20201;-51
2024/03/04 12:10:05;;;;;;;0.00;0.00;;;23.00;36.30;;;;;;5012209;28;20224;-52
2024/03/04 12:12:36;;;;;;;0.00;0.00;;;23.00;36.30;;;;;;5011752;28;20197;-51
2024/03/04 12:15:10;;;;;;;0.00;0.00;;;23.00;36.30;;;;;;5011528;28;20203;-47
2024/03/04 12:17:41;;;;;;;0.00;0.00;;;23.00;36.40;;;;;;5012177;28;20193;-52
2024/03/04 12:20:12;;;;;;;0.00;0.00;;;23.00;36.40;;;;;;5011914;28;20639;-53
2024/03/04 12:22:42;;;;;;;0.00;0.00;;;23.00;36.40;;;;;;5011334;28;20215;-52
2024/03/04 12:25:13;;;;;;;0.00;0.00;;;22.90;36.40;;;;;;5011996;28;20672;-54
2024/03/04 12:27:44;;;;;;;0.00;0.00;;;22.90;36.50;;;;;;5011668;28;20254;-52
2024/03/04 12:30:19;;;;;;;0.00;0.00;;;22.90;36.50;;;;;;5011448;28;20283;-52
2024/03/04 12:32:51;;;;;;;0.00;0.00;;;22.90;36.60;;;;;;5011053;28;20197;-53
2024/03/04 12:35:25;;;;;;;0.00;0.00;;;22.90;36.60;;;;;;5011812;28;20200;-48
2024/03/04 12:37:57;;;;;;;0.00;0.00;;;22.80;36.60;;;;;;5011663;28;20215;-54
2024/03/04 12:40:29;;;;;;;0.00;0.00;;;22.80;36.60;;;;;;5011345;28;20295;-50
2024/03/04 12:43:01;;;;;;;0.03;0.03;;;22.80;36.70;;;;;;5011519;28;20196;-54
2024/03/04 12:45:34;;;;;;;0.00;0.00;;;22.80;36.70;;;;;;5011609;28;20650;-51
2024/03/04 12:48:05;;;;;;;0.08;0.08;;;22.80;36.70;;;;;;5012129;28;20197;-49
2024/03/04 12:50:36;;;;;;;0.10;0.10;;;22.80;36.70;;;;;;5010910;28;20216;-54
2024/03/04 12:53:06;;;;;;;0.00;0.00;;;22.80;36.80;;;;;;5011635;28;20196;-55
2024/03/04 12:55:40;;;;;;;0.00;0.00;;;22.80;36.80;;;;;;5014150;28;20263;-51
2024/03/04 12:58:11;;;;;;;0.00;0.00;;;22.80;36.80;;;;;;5014942;28;20197;-54
2024/03/04 13:00:45;;;;;;;0.00;0.00;;;22.70;36.80;;;;;;5015228;28;20287;-52
2024/03/04 13:03:16;;;;;;;0.00;0.00;;;22.70;36.80;;;;;;5015664;28;20657;-52
2024/03/04 13:05:47;;;;;;;0.00;0.00;;;22.70;36.80;;;;;;5015587;28;20432;-54
2024/03/04 13:08:17;;;;;;;0.10;0.10;;;22.70;36.90;;;;;;5015735;28;20544;-52
2024/03/04 13:10:48;;;;;;;0.10;0.10;;;22.70;36.90;;;;;;5015382;28;20216;-53